sensor_id;sensor_type;location;lat;lon;timestamp;temperature;humidity
53802;DHT22;39709;53.334;6.534;2022-07-23T00:00:32;15.10;1.00
53802;DHT22;39709;53.334;6.534;2022-07-23T00:02:57;15.00;1.00
53802;DHT22;39709;53.334;6.534;2022-07-23T00:05:23;15.00;1.00
53802;DHT22;39709;53.334;6.534;2022-07-23T00:07:49;14.90;2.10
53802;DHT22;39709;53.334;6.534;2022-07-23T00:10:14;15.00;3.70
53802;DHT22;39709;53.334;6.534;2022-07-23T00:12:41;15.00;6.30
53802;DHT22;39709;53.334;6.534;2022-07-23T00:15:07;15.00;8.90
53802;DHT22;39709;53.334;6.534;2022-07-23T00:17:33;14.90;10.10
53802;DHT22;39709;53.334;6.534;2022-07-23T00:19:59;14.80;13.80
53802;DHT22;39709;53.334;6.534;2022-07-23T00:22:25;14.90;15.70
53802;DHT22;39709;53.334;6.534;2022-07-23T00:24:51;14.80;15.10
53802;DHT22;39709;53.334;6.534;2022-07-23T00:27:17;14.80;17.50
53802;DHT22;39709;53.334;6.534;2022-07-23T00:29:42;14.80;19.00
53802;DHT22;39709;53.334;6.534;2022-07-23T00:32:08;14.80;19.20
53802;DHT22;39709;53.334;6.534;2022-07-23T00:34:34;14.80;19.90
53802;DHT22;39709;53.334;6.534;2022-07-23T00:37:00;14.90;20.90
53802;DHT22;39709;53.334;6.534;2022-07-23T00:39:25;14.90;19.50
53802;DHT22;39709;53.334;6.534;2022-07-23T00:41:51;14.90;20.90
53802;DHT22;39709;53.334;6.534;2022-07-23T00:44:23;14.80;22.30
53802;DHT22;39709;53.334;6.534;2022-07-23T00:46:52;14.90;21.20
53802;DHT22;39709;53.334;6.534;2022-07-23T00:49:28;14.80;22.60
53802;DHT22;39709;53.334;6.534;2022-07-23T00:51:55;14.80;23.20
53802;DHT22;39709;53.334;6.534;2022-07-23T00:54:26;14.70;20.80
53802;DHT22;39709;53.334;6.534;2022-07-23T00:56:52;14.90;19.80
53802;DHT22;39709;53.334;6.534;2022-07-23T00:59:18;14.70;21.70
53802;DHT22;39709;53.334;6.534;2022-07-23T01:01:44;14.80;24.50
53802;DHT22;39709;53.334;6.534;2022-07-23T01:04:13;14.70;24.30
53802;DHT22;39709;53.334;6.534;2022-07-23T01:06:40;14.60;26.10
53802;DHT22;39709;53.334;6.534;2022-07-23T01:09:07;14.70;29.40
53802;DHT22;39709;53.334;6.534;2022-07-23T01:11:36;14.40;30.00
53802;DHT22;39709;53.334;6.534;2022-07-23T01:14:15;14.70;30.40
53802;DHT22;39709;53.334;6.534;2022-07-23T01:16:42;14.60;27.70
53802;DHT22;39709;53.334;6.534;2022-07-23T01:19:09;14.60;30.20
53802;DHT22;39709;53.334;6.534;2022-07-23T01:21:41;14.70;31.30
53802;DHT22;39709;53.334;6.534;2022-07-23T01:24:08;14.60;27.90
53802;DHT22;39709;53.334;6.534;2022-07-23T01:26:34;14.60;27.40
53802;DHT22;39709;53.334;6.534;2022-07-23T01:28:59;14.60;24.90
53802;DHT22;39709;53.334;6.534;2022-07-23T01:31:26;14.70;25.20
53802;DHT22;39709;53.334;6.534;2022-07-23T01:33:52;14.80;22.80
53802;DHT22;39709;53.334;6.534;2022-07-23T01:36:17;14.60;21.30
53802;DHT22;39709;53.334;6.534;2022-07-23T01:38:43;14.80;21.00
53802;DHT22;39709;53.334;6.534;2022-07-23T01:41:09;14.70;19.00
53802;DHT22;39709;53.334;6.534;2022-07-23T01:43:35;14.70;19.30
53802;DHT22;39709;53.334;6.534;2022-07-23T01:46:00;14.80;20.10
53802;DHT22;39709;53.334;6.534;2022-07-23T01:48:26;14.70;18.10
53802;DHT22;39709;53.334;6.534;2022-07-23T01:50:52;14.70;19.40
53802;DHT22;39709;53.334;6.534;2022-07-23T01:53:17;14.70;22.20
53802;DHT22;39709;53.334;6.534;2022-07-23T01:55:43;14.70;21.90
53802;DHT22;39709;53.334;6.534;2022-07-23T01:58:09;14.70;23.40
53802;DHT22;39709;53.334;6.534;2022-07-23T02:00:35;14.70;22.20
53802;DHT22;39709;53.334;6.534;2022-07-23T02:03:00;14.70;22.60
53802;DHT22;39709;53.334;6.534;2022-07-23T02:05:27;14.60;20.80
53802;DHT22;39709;53.334;6.534;2022-07-23T02:07:54;14.60;22.90
53802;DHT22;39709;53.334;6.534;2022-07-23T02:10:21;14.60;20.80
53802;DHT22;39709;53.334;6.534;2022-07-23T02:12:47;14.60;20.30
53802;DHT22;39709;53.334;6.534;2022-07-23T02:15:12;14.60;22.50
53802;DHT22;39709;53.334;6.534;2022-07-23T02:17:38;14.60;19.70
53802;DHT22;39709;53.334;6.534;2022-07-23T02:20:05;14.60;18.90
53802;DHT22;39709;53.334;6.534;2022-07-23T02:22:31;14.70;19.20
53802;DHT22;39709;53.334;6.534;2022-07-23T02:24:57;14.60;16.10
53802;DHT22;39709;53.334;6.534;2022-07-23T02:27:23;14.60;18.90
53802;DHT22;39709;53.334;6.534;2022-07-23T02:29:49;14.60;18.30
53802;DHT22;39709;53.334;6.534;2022-07-23T02:32:15;14.60;25.50
53802;DHT22;39709;53.334;6.534;2022-07-23T02:34:41;14.50;28.50
53802;DHT22;39709;53.334;6.534;2022-07-23T02:37:07;14.60;28.10
53802;DHT22;39709;53.334;6.534;2022-07-23T02:39:37;14.50;31.60
53802;DHT22;39709;53.334;6.534;2022-07-23T02:42:03;14.60;32.30
53802;DHT22;39709;53.334;6.534;2022-07-23T02:44:28;14.50;30.90
53802;DHT22;39709;53.334;6.534;2022-07-23T02:46:54;14.60;35.40
53802;DHT22;39709;53.334;6.534;2022-07-23T02:49:20;14.60;29.70
53802;DHT22;39709;53.334;6.534;2022-07-23T02:51:45;14.60;35.00
53802;DHT22;39709;53.334;6.534;2022-07-23T02:54:11;14.50;37.00
53802;DHT22;39709;53.334;6.534;2022-07-23T02:56:36;14.40;38.50
53802;DHT22;39709;53.334;6.534;2022-07-23T02:59:02;14.50;38.10
53802;DHT22;39709;53.334;6.534;2022-07-23T03:01:28;14.50;38.90
53802;DHT22;39709;53.334;6.534;2022-07-23T03:03:53;14.40;41.60
53802;DHT22;39709;53.334;6.534;2022-07-23T03:06:19;14.40;39.00
53802;DHT22;39709;53.334;6.534;2022-07-23T03:08:45;14.60;37.00
53802;DHT22;39709;53.334;6.534;2022-07-23T03:11:10;14.50;40.60
53802;DHT22;39709;53.334;6.534;2022-07-23T03:13:40;14.50;41.10
53802;DHT22;39709;53.334;6.534;2022-07-23T03:16:06;14.60;41.70
53802;DHT22;39709;53.334;6.534;2022-07-23T03:18:33;14.60;35.50
53802;DHT22;39709;53.334;6.534;2022-07-23T03:20:59;14.50;31.10
53802;DHT22;39709;53.334;6.534;2022-07-23T03:23:25;14.60;30.90
53802;DHT22;39709;53.334;6.534;2022-07-23T03:25:50;14.50;27.70
53802;DHT22;39709;53.334;6.534;2022-07-23T03:28:17;14.70;25.00
53802;DHT22;39709;53.334;6.534;2022-07-23T03:30:47;14.60;32.90
53802;DHT22;39709;53.334;6.534;2022-07-23T03:33:14;14.60;30.00
53802;DHT22;39709;53.334;6.534;2022-07-23T03:35:40;14.70;34.30
53802;DHT22;39709;53.334;6.534;2022-07-23T03:38:06;14.70;26.10
53802;DHT22;39709;53.334;6.534;2022-07-23T03:40:31;14.60;32.70
53802;DHT22;39709;53.334;6.534;2022-07-23T03:42:57;14.70;34.80
53802;DHT22;39709;53.334;6.534;2022-07-23T03:45:23;14.70;34.90
53802;DHT22;39709;53.334;6.534;2022-07-23T03:47:48;14.60;53.80
53802;DHT22;39709;53.334;6.534;2022-07-23T03:50:14;14.60;44.70
53802;DHT22;39709;53.334;6.534;2022-07-23T03:52:40;14.60;41.80
53802;DHT22;39709;53.334;6.534;2022-07-23T03:55:06;14.70;40.50
53802;DHT22;39709;53.334;6.534;2022-07-23T03:57:32;14.70;42.70
53802;DHT22;39709;53.334;6.534;2022-07-23T03:59:58;14.70;44.00
53802;DHT22;39709;53.334;6.534;2022-07-23T04:02:23;14.50;49.00
53802;DHT22;39709;53.334;6.534;2022-07-23T04:04:49;14.70;45.40
53802;DHT22;39709;53.334;6.534;2022-07-23T04:07:15;14.50;45.20
53802;DHT22;39709;53.334;6.534;2022-07-23T04:09:43;14.70;47.70
53802;DHT22;39709;53.334;6.534;2022-07-23T04:12:09;14.60;47.60
53802;DHT22;39709;53.334;6.534;2022-07-23T04:14:34;14.60;46.70
53802;DHT22;39709;53.334;6.534;2022-07-23T04:17:00;14.70;49.10
53802;DHT22;39709;53.334;6.534;2022-07-23T04:19:26;14.60;42.40
53802;DHT22;39709;53.334;6.534;2022-07-23T04:21:52;14.60;44.50
53802;DHT22;39709;53.334;6.534;2022-07-23T04:24:18;14.70;42.30
53802;DHT22;39709;53.334;6.534;2022-07-23T04:26:44;14.60;42.60
53802;DHT22;39709;53.334;6.534;2022-07-23T04:29:10;14.50;41.60
53802;DHT22;39709;53.334;6.534;2022-07-23T04:31:36;14.70;43.00
53802;DHT22;39709;53.334;6.534;2022-07-23T04:34:02;14.60;45.40
53802;DHT22;39709;53.334;6.534;2022-07-23T04:36:28;14.60;45.30
53802;DHT22;39709;53.334;6.534;2022-07-23T04:38:54;14.60;48.00
53802;DHT22;39709;53.334;6.534;2022-07-23T04:41:20;14.70;45.90
53802;DHT22;39709;53.334;6.534;2022-07-23T04:43:46;14.80;43.10
53802;DHT22;39709;53.334;6.534;2022-07-23T04:46:12;14.70;43.60
53802;DHT22;39709;53.334;6.534;2022-07-23T04:48:38;14.80;43.00
53802;DHT22;39709;53.334;6.534;2022-07-23T04:51:03;14.90;40.40
53802;DHT22;39709;53.334;6.534;2022-07-23T04:53:29;15.00;42.60
53802;DHT22;39709;53.334;6.534;2022-07-23T04:55:56;14.90;39.50
53802;DHT22;39709;53.334;6.534;2022-07-23T04:58:22;15.10;42.50
53802;DHT22;39709;53.334;6.534;2022-07-23T05:00:48;14.90;36.60
53802;DHT22;39709;53.334;6.534;2022-07-23T05:03:13;15.00;37.50
53802;DHT22;39709;53.334;6.534;2022-07-23T05:05:39;15.00;41.50
53802;DHT22;39709;53.334;6.534;2022-07-23T05:08:05;15.20;37.60
53802;DHT22;39709;53.334;6.534;2022-07-23T05:10:31;15.10;36.20
53802;DHT22;39709;53.334;6.534;2022-07-23T05:12:56;15.20;35.30
53802;DHT22;39709;53.334;6.534;2022-07-23T05:15:22;15.20;31.70
53802;DHT22;39709;53.334;6.534;2022-07-23T05:17:48;15.30;29.40
53802;DHT22;39709;53.334;6.534;2022-07-23T05:20:14;15.20;29.70
53802;DHT22;39709;53.334;6.534;2022-07-23T05:22:40;15.20;28.50
53802;DHT22;39709;53.334;6.534;2022-07-23T05:25:06;15.40;27.00
53802;DHT22;39709;53.334;6.534;2022-07-23T05:27:32;15.30;29.20
53802;DHT22;39709;53.334;6.534;2022-07-23T05:29:58;15.30;25.20
53802;DHT22;39709;53.334;6.534;2022-07-23T05:32:23;15.40;22.70
53802;DHT22;39709;53.334;6.534;2022-07-23T05:34:49;15.40;24.70
53802;DHT22;39709;53.334;6.534;2022-07-23T05:37:15;15.50;23.30
53802;DHT22;39709;53.334;6.534;2022-07-23T05:39:41;15.60;23.40
53802;DHT22;39709;53.334;6.534;2022-07-23T05:42:07;15.50;19.50
53802;DHT22;39709;53.334;6.534;2022-07-23T05:44:33;15.60;22.80
53802;DHT22;39709;53.334;6.534;2022-07-23T05:46:59;15.50;20.40
53802;DHT22;39709;53.334;6.534;2022-07-23T05:49:25;15.50;17.60
53802;DHT22;39709;53.334;6.534;2022-07-23T05:51:50;15.50;18.80
53802;DHT22;39709;53.334;6.534;2022-07-23T05:54:16;15.50;20.20
53802;DHT22;39709;53.334;6.534;2022-07-23T05:56:42;15.50;19.20
53802;DHT22;39709;53.334;6.534;2022-07-23T05:59:07;15.40;19.70
53802;DHT22;39709;53.334;6.534;2022-07-23T06:01:33;15.60;20.30
53802;DHT22;39709;53.334;6.534;2022-07-23T06:03:59;15.50;21.10
53802;DHT22;39709;53.334;6.534;2022-07-23T06:06:25;15.50;18.10
53802;DHT22;39709;53.334;6.534;2022-07-23T06:08:50;15.70;17.90
53802;DHT22;39709;53.334;6.534;2022-07-23T06:11:16;15.60;16.80
53802;DHT22;39709;53.334;6.534;2022-07-23T06:13:41;15.70;15.50
53802;DHT22;39709;53.334;6.534;2022-07-23T06:16:07;15.80;13.60
53802;DHT22;39709;53.334;6.534;2022-07-23T06:18:33;15.90;12.60
53802;DHT22;39709;53.334;6.534;2022-07-23T06:20:59;15.90;9.00
53802;DHT22;39709;53.334;6.534;2022-07-23T06:23:24;16.00;11.80
53802;DHT22;39709;53.334;6.534;2022-07-23T06:25:50;16.10;8.90
53802;DHT22;39709;53.334;6.534;2022-07-23T06:28:16;16.10;1.00
53802;DHT22;39709;53.334;6.534;2022-07-23T06:30:42;16.20;1.00
53802;DHT22;39709;53.334;6.534;2022-07-23T06:33:07;16.20;2.00
53802;DHT22;39709;53.334;6.534;2022-07-23T06:35:33;16.20;1.00
53802;DHT22;39709;53.334;6.534;2022-07-23T06:37:59;16.30;1.00
53802;DHT22;39709;53.334;6.534;2022-07-23T06:40:25;16.40;1.00
53802;DHT22;39709;53.334;6.534;2022-07-23T06:42:51;16.50;1.00
53802;DHT22;39709;53.334;6.534;2022-07-23T06:45:17;16.50;1.00
53802;DHT22;39709;53.334;6.534;2022-07-23T06:47:43;16.50;1.00
53802;DHT22;39709;53.334;6.534;2022-07-23T06:50:09;16.50;1.00
53802;DHT22;39709;53.334;6.534;2022-07-23T06:52:35;16.60;1.00
53802;DHT22;39709;53.334;6.534;2022-07-23T06:55:00;16.70;1.00
53802;DHT22;39709;53.334;6.534;2022-07-23T06:57:26;16.80;1.00
53802;DHT22;39709;53.334;6.534;2022-07-23T06:59:52;17.00;1.00
53802;DHT22;39709;53.334;6.534;2022-07-23T07:02:18;17.10;1.00
53802;DHT22;39709;53.334;6.534;2022-07-23T07:04:44;17.00;1.00
53802;DHT22;39709;53.334;6.534;2022-07-23T07:07:09;17.00;1.00
53802;DHT22;39709;53.334;6.534;2022-07-23T07:09:35;17.20;1.00
53802;DHT22;39709;53.334;6.534;2022-07-23T07:12:00;17.20;1.00
53802;DHT22;39709;53.334;6.534;2022-07-23T07:14:27;17.40;1.00
53802;DHT22;39709;53.334;6.534;2022-07-23T07:16:52;17.50;1.00
53802;DHT22;39709;53.334;6.534;2022-07-23T07:19:18;17.80;1.00
53802;DHT22;39709;53.334;6.534;2022-07-23T07:21:44;18.10;1.00
53802;DHT22;39709;53.334;6.534;2022-07-23T07:24:09;18.20;1.00
53802;DHT22;39709;53.334;6.534;2022-07-23T07:26:35;17.80;1.00
53802;DHT22;39709;53.334;6.534;2022-07-23T07:29:01;18.00;1.00
53802;DHT22;39709;53.334;6.534;2022-07-23T07:31:27;17.90;1.00
53802;DHT22;39709;53.334;6.534;2022-07-23T07:33:52;17.80;1.00
53802;DHT22;39709;53.334;6.534;2022-07-23T07:36:18;17.50;1.00
53802;DHT22;39709;53.334;6.534;2022-07-23T07:38:44;17.50;1.00
53802;DHT22;39709;53.334;6.534;2022-07-23T07:41:10;17.30;1.00
53802;DHT22;39709;53.334;6.534;2022-07-23T07:43:36;17.30;1.00
53802;DHT22;39709;53.334;6.534;2022-07-23T07:46:03;17.40;1.00
53802;DHT22;39709;53.334;6.534;2022-07-23T07:48:29;17.60;1.00
53802;DHT22;39709;53.334;6.534;2022-07-23T07:50:55;17.60;1.00
53802;DHT22;39709;53.334;6.534;2022-07-23T07:53:20;17.60;1.00
53802;DHT22;39709;53.334;6.534;2022-07-23T07:55:46;17.50;1.00
53802;DHT22;39709;53.334;6.534;2022-07-23T07:58:12;17.50;1.00
53802;DHT22;39709;53.334;6.534;2022-07-23T08:00:37;17.50;1.00
53802;DHT22;39709;53.334;6.534;2022-07-23T08:03:03;17.70;1.00
53802;DHT22;39709;53.334;6.534;2022-07-23T08:05:30;17.90;1.00
53802;DHT22;39709;53.334;6.534;2022-07-23T08:07:58;18.00;1.00
53802;DHT22;39709;53.334;6.534;2022-07-23T08:10:25;18.10;1.00
53802;DHT22;39709;53.334;6.534;2022-07-23T08:12:53;18.20;1.00
53802;DHT22;39709;53.334;6.534;2022-07-23T08:15:20;18.40;1.00
53802;DHT22;39709;53.334;6.534;2022-07-23T08:17:47;18.30;1.00
53802;DHT22;39709;53.334;6.534;2022-07-23T08:20:14;18.10;1.00
53802;DHT22;39709;53.334;6.534;2022-07-23T08:22:57;18.00;1.00
53802;DHT22;39709;53.334;6.534;2022-07-23T08:25:32;18.20;1.00
53802;DHT22;39709;53.334;6.534;2022-07-23T08:27:59;18.40;1.00
53802;DHT22;39709;53.334;6.534;2022-07-23T08:30:25;18.80;1.00
53802;DHT22;39709;53.334;6.534;2022-07-23T08:33:00;18.80;1.00
53802;DHT22;39709;53.334;6.534;2022-07-23T08:35:32;18.80;1.00
53802;DHT22;39709;53.334;6.534;2022-07-23T08:38:01;18.50;1.00
53802;DHT22;39709;53.334;6.534;2022-07-23T08:40:29;18.60;1.00
53802;DHT22;39709;53.334;6.534;2022-07-23T08:42:55;18.70;1.00
53802;DHT22;39709;53.334;6.534;2022-07-23T08:45:23;18.70;1.00
53802;DHT22;39709;53.334;6.534;2022-07-23T08:47:57;18.90;1.00
53802;DHT22;39709;53.334;6.534;2022-07-23T08:50:26;19.10;1.00
53802;DHT22;39709;53.334;6.534;2022-07-23T08:52:53;19.10;1.00
53802;DHT22;39709;53.334;6.534;2022-07-23T08:55:22;18.90;1.00
53802;DHT22;39709;53.334;6.534;2022-07-23T08:57:49;19.00;1.00
53802;DHT22;39709;53.334;6.534;2022-07-23T09:00:17;19.50;1.00
53802;DHT22;39709;53.334;6.534;2022-07-23T09:02:44;19.30;1.00
53802;DHT22;39709;53.334;6.534;2022-07-23T09:05:11;19.30;1.00
53802;DHT22;39709;53.334;6.534;2022-07-23T09:07:38;19.20;1.00
53802;DHT22;39709;53.334;6.534;2022-07-23T09:10:23;19.10;1.00
53802;DHT22;39709;53.334;6.534;2022-07-23T09:12:49;19.10;1.00
53802;DHT22;39709;53.334;6.534;2022-07-23T09:15:15;18.90;1.00
53802;DHT22;39709;53.334;6.534;2022-07-23T09:17:42;19.20;1.00
53802;DHT22;39709;53.334;6.534;2022-07-23T09:20:14;19.20;1.00
53802;DHT22;39709;53.334;6.534;2022-07-23T09:22:45;19.10;1.00
53802;DHT22;39709;53.334;6.534;2022-07-23T09:25:18;18.90;1.00
53802;DHT22;39709;53.334;6.534;2022-07-23T09:27:55;19.00;1.00
53802;DHT22;39709;53.334;6.534;2022-07-23T09:30:26;19.00;1.00
53802;DHT22;39709;53.334;6.534;2022-07-23T09:33:09;18.80;1.00
53802;DHT22;39709;53.334;6.534;2022-07-23T09:35:51;18.90;1.00
53802;DHT22;39709;53.334;6.534;2022-07-23T09:38:18;19.10;1.00
53802;DHT22;39709;53.334;6.534;2022-07-23T09:40:45;19.10;1.00
53802;DHT22;39709;53.334;6.534;2022-07-23T09:43:25;19.10;1.00
53802;DHT22;39709;53.334;6.534;2022-07-23T09:45:53;19.20;1.00
53802;DHT22;39709;53.334;6.534;2022-07-23T09:48:18;19.30;1.00
53802;DHT22;39709;53.334;6.534;2022-07-23T09:50:45;19.30;1.00
53802;DHT22;39709;53.334;6.534;2022-07-23T09:53:24;19.20;1.00
53802;DHT22;39709;53.334;6.534;2022-07-23T09:55:52;19.20;1.00
53802;DHT22;39709;53.334;6.534;2022-07-23T09:58:21;19.20;1.00
53802;DHT22;39709;53.334;6.534;2022-07-23T10:00:48;19.50;1.00
53802;DHT22;39709;53.334;6.534;2022-07-23T10:03:15;19.70;1.00
53802;DHT22;39709;53.334;6.534;2022-07-23T10:05:42;19.90;1.00
53802;DHT22;39709;53.334;6.534;2022-07-23T10:08:11;19.90;1.00
53802;DHT22;39709;53.334;6.534;2022-07-23T10:10:41;20.10;1.00
53802;DHT22;39709;53.334;6.534;2022-07-23T10:13:08;20.00;1.00
53802;DHT22;39709;53.334;6.534;2022-07-23T10:15:37;19.90;1.00
53802;DHT22;39709;53.334;6.534;2022-07-23T10:18:05;19.80;1.00
53802;DHT22;39709;53.334;6.534;2022-07-23T10:20:31;20.00;1.00
53802;DHT22;39709;53.334;6.534;2022-07-23T10:23:09;20.00;1.00
53802;DHT22;39709;53.334;6.534;2022-07-23T10:25:55;20.20;1.00
53802;DHT22;39709;53.334;6.534;2022-07-23T10:36:40;19.70;1.00
53802;DHT22;39709;53.334;6.534;2022-07-23T10:39:10;19.80;1.00
53802;DHT22;39709;53.334;6.534;2022-07-23T10:41:41;19.80;1.00
53802;DHT22;39709;53.334;6.534;2022-07-23T10:44:15;19.70;1.00
53802;DHT22;39709;53.334;6.534;2022-07-23T10:49:38;19.70;1.00
53802;DHT22;39709;53.334;6.534;2022-07-23T10:54:44;20.00;1.00
53802;DHT22;39709;53.334;6.534;2022-07-23T10:57:14;20.00;1.00
53802;DHT22;39709;53.334;6.534;2022-07-23T11:02:41;20.30;1.00
53802;DHT22;39709;53.334;6.534;2022-07-23T11:05:09;20.30;1.00
53802;DHT22;39709;53.334;6.534;2022-07-23T11:07:36;20.30;1.00
53802;DHT22;39709;53.334;6.534;2022-07-23T11:10:41;20.30;1.00
53802;DHT22;39709;53.334;6.534;2022-07-23T11:13:27;20.10;1.00
53802;DHT22;39709;53.334;6.534;2022-07-23T11:26:43;19.90;1.00
53802;DHT22;39709;53.334;6.534;2022-07-23T11:34:45;20.10;1.00
53802;DHT22;39709;53.334;6.534;2022-07-23T11:37:33;20.50;1.00
53802;DHT22;39709;53.334;6.534;2022-07-23T11:40:03;20.60;1.00
53802;DHT22;39709;53.334;6.534;2022-07-23T11:42:29;20.50;1.00
53802;DHT22;39709;53.334;6.534;2022-07-23T11:44:55;20.60;1.00
53802;DHT22;39709;53.334;6.534;2022-07-23T11:47:23;20.80;1.00
53802;DHT22;39709;53.334;6.534;2022-07-23T11:49:54;20.60;1.00
53802;DHT22;39709;53.334;6.534;2022-07-23T11:52:20;20.30;1.00
53802;DHT22;39709;53.334;6.534;2022-07-23T11:57:14;20.20;1.00
53802;DHT22;39709;53.334;6.534;2022-07-23T11:59:40;20.40;1.00
53802;DHT22;39709;53.334;6.534;2022-07-23T12:02:07;20.70;1.00
53802;DHT22;39709;53.334;6.534;2022-07-23T12:04:46;20.70;1.00
53802;DHT22;39709;53.334;6.534;2022-07-23T12:07:32;20.70;1.00
53802;DHT22;39709;53.334;6.534;2022-07-23T12:10:01;20.70;1.00
53802;DHT22;39709;53.334;6.534;2022-07-23T12:12:27;20.60;1.00
53802;DHT22;39709;53.334;6.534;2022-07-23T12:14:57;20.40;1.00
53802;DHT22;39709;53.334;6.534;2022-07-23T12:17:29;20.30;1.00
53802;DHT22;39709;53.334;6.534;2022-07-23T12:19:57;20.20;1.00
53802;DHT22;39709;53.334;6.534;2022-07-23T12:22:25;20.40;1.00
53802;DHT22;39709;53.334;6.534;2022-07-23T12:24:56;20.50;1.00
53802;DHT22;39709;53.334;6.534;2022-07-23T12:27:23;20.40;1.00
53802;DHT22;39709;53.334;6.534;2022-07-23T12:29:49;20.60;1.00
53802;DHT22;39709;53.334;6.534;2022-07-23T12:34:49;21.10;1.00
53802;DHT22;39709;53.334;6.534;2022-07-23T12:37:36;21.10;1.00
53802;DHT22;39709;53.334;6.534;2022-07-23T12:40:24;21.00;1.00
53802;DHT22;39709;53.334;6.534;2022-07-23T12:42:57;21.20;1.00
53802;DHT22;39709;53.334;6.534;2022-07-23T12:45:23;21.40;1.00
53802;DHT22;39709;53.334;6.534;2022-07-23T12:47:54;21.20;1.00
53802;DHT22;39709;53.334;6.534;2022-07-23T12:50:42;21.10;1.00
53802;DHT22;39709;53.334;6.534;2022-07-23T12:53:17;21.20;1.00
53802;DHT22;39709;53.334;6.534;2022-07-23T12:55:44;21.60;1.00
53802;DHT22;39709;53.334;6.534;2022-07-23T12:58:20;21.10;1.00
53802;DHT22;39709;53.334;6.534;2022-07-23T13:00:53;20.80;1.00
53802;DHT22;39709;53.334;6.534;2022-07-23T13:03:33;20.90;1.00
53802;DHT22;39709;53.334;6.534;2022-07-23T13:06:00;21.20;1.00
53802;DHT22;39709;53.334;6.534;2022-07-23T13:08:28;21.00;1.00
53802;DHT22;39709;53.334;6.534;2022-07-23T13:10:54;21.00;1.00
53802;DHT22;39709;53.334;6.534;2022-07-23T13:13:22;21.00;1.00
53802;DHT22;39709;53.334;6.534;2022-07-23T13:15:48;20.80;1.00
53802;DHT22;39709;53.334;6.534;2022-07-23T13:18:14;20.80;1.00
53802;DHT22;39709;53.334;6.534;2022-07-23T13:20:40;20.60;1.00
53802;DHT22;39709;53.334;6.534;2022-07-23T13:23:07;20.70;1.00
53802;DHT22;39709;53.334;6.534;2022-07-23T13:25:33;20.90;1.00
53802;DHT22;39709;53.334;6.534;2022-07-23T13:27:59;20.80;1.00
53802;DHT22;39709;53.334;6.534;2022-07-23T13:30:24;20.90;1.00
53802;DHT22;39709;53.334;6.534;2022-07-23T13:32:50;20.60;1.00
53802;DHT22;39709;53.334;6.534;2022-07-23T13:35:16;20.80;1.00
53802;DHT22;39709;53.334;6.534;2022-07-23T13:37:42;20.70;1.00
53802;DHT22;39709;53.334;6.534;2022-07-23T13:40:08;20.80;1.00
53802;DHT22;39709;53.334;6.534;2022-07-23T13:42:33;21.30;1.00
53802;DHT22;39709;53.334;6.534;2022-07-23T13:44:59;21.50;1.00
53802;DHT22;39709;53.334;6.534;2022-07-23T13:47:25;21.10;1.00
53802;DHT22;39709;53.334;6.534;2022-07-23T13:49:51;21.10;1.00
53802;DHT22;39709;53.334;6.534;2022-07-23T13:52:16;20.80;1.00
53802;DHT22;39709;53.334;6.534;2022-07-23T13:54:42;20.70;1.00
53802;DHT22;39709;53.334;6.534;2022-07-23T13:57:08;20.80;1.00
53802;DHT22;39709;53.334;6.534;2022-07-23T13:59:35;20.80;1.00
53802;DHT22;39709;53.334;6.534;2022-07-23T14:02:02;20.90;1.00
53802;DHT22;39709;53.334;6.534;2022-07-23T14:04:28;21.30;1.00
53802;DHT22;39709;53.334;6.534;2022-07-23T14:06:54;21.20;1.00
53802;DHT22;39709;53.334;6.534;2022-07-23T14:09:21;21.50;1.00
53802;DHT22;39709;53.334;6.534;2022-07-23T14:11:46;21.60;1.00
53802;DHT22;39709;53.334;6.534;2022-07-23T14:14:12;21.70;1.00
53802;DHT22;39709;53.334;6.534;2022-07-23T14:16:38;21.40;1.00
53802;DHT22;39709;53.334;6.534;2022-07-23T14:19:03;21.10;1.00
53802;DHT22;39709;53.334;6.534;2022-07-23T14:21:29;21.00;1.00
53802;DHT22;39709;53.334;6.534;2022-07-23T14:23:55;21.50;1.00
53802;DHT22;39709;53.334;6.534;2022-07-23T14:26:21;21.60;1.00
53802;DHT22;39709;53.334;6.534;2022-07-23T14:28:46;21.60;1.00
53802;DHT22;39709;53.334;6.534;2022-07-23T14:31:12;22.00;1.00
53802;DHT22;39709;53.334;6.534;2022-07-23T14:33:38;22.00;1.00
53802;DHT22;39709;53.334;6.534;2022-07-23T14:36:03;22.10;1.00
53802;DHT22;39709;53.334;6.534;2022-07-23T14:38:29;21.80;1.00
53802;DHT22;39709;53.334;6.534;2022-07-23T14:40:56;21.90;1.00
53802;DHT22;39709;53.334;6.534;2022-07-23T14:43:22;21.50;1.00
53802;DHT22;39709;53.334;6.534;2022-07-23T14:45:48;21.30;1.00
53802;DHT22;39709;53.334;6.534;2022-07-23T14:48:14;21.70;1.00
53802;DHT22;39709;53.334;6.534;2022-07-23T14:50:40;21.80;1.00
53802;DHT22;39709;53.334;6.534;2022-07-23T14:53:05;21.90;1.00
53802;DHT22;39709;53.334;6.534;2022-07-23T14:55:32;21.70;1.00
53802;DHT22;39709;53.334;6.534;2022-07-23T14:57:59;22.00;1.00
53802;DHT22;39709;53.334;6.534;2022-07-23T15:00:25;22.10;1.00
53802;DHT22;39709;53.334;6.534;2022-07-23T15:02:52;22.00;1.00
53802;DHT22;39709;53.334;6.534;2022-07-23T15:05:17;21.90;1.00
53802;DHT22;39709;53.334;6.534;2022-07-23T15:07:43;21.60;1.00
53802;DHT22;39709;53.334;6.534;2022-07-23T15:10:09;21.70;1.00
53802;DHT22;39709;53.334;6.534;2022-07-23T15:12:35;21.80;1.00
53802;DHT22;39709;53.334;6.534;2022-07-23T15:15:00;21.90;1.00
53802;DHT22;39709;53.334;6.534;2022-07-23T15:17:26;21.60;1.00
53802;DHT22;39709;53.334;6.534;2022-07-23T15:19:52;21.80;1.00
53802;DHT22;39709;53.334;6.534;2022-07-23T15:22:18;21.90;1.00
53802;DHT22;39709;53.334;6.534;2022-07-23T15:24:43;22.00;1.00
53802;DHT22;39709;53.334;6.534;2022-07-23T15:27:09;21.60;1.00
53802;DHT22;39709;53.334;6.534;2022-07-23T15:29:35;21.80;1.00
53802;DHT22;39709;53.334;6.534;2022-07-23T15:32:02;22.10;1.00
53802;DHT22;39709;53.334;6.534;2022-07-23T15:34:28;22.00;1.00
53802;DHT22;39709;53.334;6.534;2022-07-23T15:36:53;22.30;1.00
53802;DHT22;39709;53.334;6.534;2022-07-23T15:39:19;22.30;1.00
53802;DHT22;39709;53.334;6.534;2022-07-23T15:41:45;22.20;1.00
53802;DHT22;39709;53.334;6.534;2022-07-23T15:44:10;22.30;1.00
53802;DHT22;39709;53.334;6.534;2022-07-23T15:46:37;21.90;1.00
53802;DHT22;39709;53.334;6.534;2022-07-23T15:49:02;21.70;1.00
53802;DHT22;39709;53.334;6.534;2022-07-23T15:51:28;21.80;1.00
53802;DHT22;39709;53.334;6.534;2022-07-23T15:53:54;21.70;1.00
53802;DHT22;39709;53.334;6.534;2022-07-23T15:56:20;21.90;1.00
53802;DHT22;39709;53.334;6.534;2022-07-23T15:58:46;21.90;1.00
53802;DHT22;39709;53.334;6.534;2022-07-23T16:01:12;21.80;1.00
53802;DHT22;39709;53.334;6.534;2022-07-23T16:03:38;22.30;1.00
53802;DHT22;39709;53.334;6.534;2022-07-23T16:06:05;22.30;1.00
53802;DHT22;39709;53.334;6.534;2022-07-23T16:08:31;22.40;1.00
53802;DHT22;39709;53.334;6.534;2022-07-23T16:10:58;22.40;1.00
53802;DHT22;39709;53.334;6.534;2022-07-23T16:13:25;22.40;1.00
53802;DHT22;39709;53.334;6.534;2022-07-23T16:15:52;22.60;1.00
53802;DHT22;39709;53.334;6.534;2022-07-23T16:18:22;22.90;1.00